Time;durP1;ratioP1;P1;durP2;ratioP2;P2;SDS_P1;SDS_P2;PMS_P1;PMS_P2;Temp;Humidity;BMP_temperature;BMP_pressure;BME280_temperature;BME280_humidity;BME280_pressure;Samples;Min_cycle;Max_cycle;Signal;HPM_P1;HPM_P2
2021/07/30 00:01:18;;;;;;;7.13;4.80;;;;;;;;;;4918358;29;20080;-65
2021/07/30 00:03:45;;;;;;;7.18;5.03;;;;;;;;;;4918211;29;20419;-65
2021/07/30 00:06:24;;;;;;;6.30;5.45;;;;;;;;;;4918172;29;20504;-65
2021/07/30 00:08:51;;;;;;;6.55;4.68;;;;;;;;;;4918126;29;20094;-65
2021/07/30 00:11:18;;;;;;;9.93;5.00;;;;;;;;;;4918035;29;20587;-64
2021/07/30 00:13:44;;;;;;;6.07;4.75;;;;;;;;;;4917696;29;20092;-64
2021/07/30 00:16:11;;;;;;;9.27;5.70;;;;;;;;;;4917940;29;20495;-64
2021/07/30 00:18:37;;;;;;;5.60;4.70;;;;;;;;;;4916728;29;20052;-65
2021/07/30 00:21:04;;;;;;;7.50;5.53;;;;;;;;;;4917833;29;20048;-64
2021/07/30 00:23:30;;;;;;;6.90;5.70;;;;;;;;;;4917778;29;20499;-65
2021/07/30 00:26:01;;;;;;;5.68;5.07;;;;;;;;;;4917801;29;20112;-65
2021/07/30 00:28:28;;;;;;;7.43;5.68;;;;;;;;;;4918048;29;20073;-65
2021/07/30 00:30:54;;;;;;;8.32;5.68;;;;;;;;;;4917174;29;20570;-64
2021/07/30 00:33:21;;;;;;;7.60;5.70;;;;;;;;;;4916749;29;20052;-65
2021/07/30 00:35:48;;;;;;;10.55;6.45;;;;;;;;;;4917738;29;20086;-64
2021/07/30 00:38:14;;;;;;;6.90;5.78;;;;;;;;;;4917679;29;20056;-64
2021/07/30 00:40:41;;;;;;;8.10;5.47;;;;;;;;;;4916365;29;20092;-64
2021/07/30 00:43:07;;;;;;;5.88;5.25;;;;;;;;;;4917514;29;20048;-65
2021/07/30 00:45:34;;;;;;;10.50;6.13;;;;;;;;;;4917567;29;20147;-65
2021/07/30 00:48:00;;;;;;;9.50;5.30;;;;;;;;;;4916434;29;20196;-64
2021/07/30 00:50:27;;;;;;;7.70;5.63;;;;;;;;;;4917527;29;20106;-64
2021/07/30 00:52:53;;;;;;;7.38;6.28;;;;;;;;;;4917296;29;20574;-65
2021/07/30 00:55:20;;;;;;;9.18;5.80;;;;;;;;;;4917424;29;20138;-65
2021/07/30 00:57:47;;;;;;;6.65;5.50;;;;;;;;;;4917254;29;20518;-64
2021/07/30 01:00:13;;;;;;;9.90;5.53;;;;;;;;;;4900431;29;20052;-64
2021/07/30 01:02:40;;;;;;;6.30;5.68;;;;;;;;;;4917274;29;20140;-64
2021/07/30 01:05:07;;;;;;;7.32;5.38;;;;;;;;;;4917248;29;20480;-64
2021/07/30 01:07:34;;;;;;;8.75;6.10;;;;;;;;;;4917319;29;20116;-65
2021/07/30 01:10:01;;;;;;;7.05;5.32;;;;;;;;;;4916919;29;20079;-65
2021/07/30 01:12:28;;;;;;;7.15;5.88;;;;;;;;;;4917200;29;20052;-65
2021/07/30 01:14:55;;;;;;;6.25;5.22;;;;;;;;;;4916845;29;20060;-64
2021/07/30 01:17:22;;;;;;;10.70;6.40;;;;;;;;;;4917063;29;20080;-64
2021/07/30 01:19:48;;;;;;;6.97;5.60;;;;;;;;;;4916431;29;20087;-64
2021/07/30 01:22:27;;;;;;;8.57;5.20;;;;;;;;;;4916785;29;20534;-65
2021/07/30 01:24:54;;;;;;;6.13;5.20;;;;;;;;;;4916596;29;20048;-64
2021/07/30 01:27:21;;;;;;;6.68;5.75;;;;;;;;;;4916813;29;20052;-64
2021/07/30 01:29:48;;;;;;;6.60;5.25;;;;;;;;;;4916626;29;20567;-65
2021/07/30 01:32:15;;;;;;;7.25;5.93;;;;;;;;;;4916556;29;20476;-65
2021/07/30 01:34:42;;;;;;;6.75;5.50;;;;;;;;;;4916498;29;20111;-64
2021/07/30 01:37:12;;;;;;;8.93;6.07;;;;;;;;;;4916679;29;20052;-65
2021/07/30 01:39:39;;;;;;;6.30;5.15;;;;;;;;;;4916375;29;20566;-65
2021/07/30 01:42:05;;;;;;;7.13;5.13;;;;;;;;;;4916779;29;20135;-64
2021/07/30 01:44:32;;;;;;;6.47;5.38;;;;;;;;;;4916144;29;20094;-64
2021/07/30 01:46:58;;;;;;;9.55;5.22;;;;;;;;;;4916513;29;20055;-65
2021/07/30 01:49:25;;;;;;;6.75;6.05;;;;;;;;;;4916310;29;20075;-64
2021/07/30 01:51:51;;;;;;;6.80;5.35;;;;;;;;;;4916218;29;20073;-65
2021/07/30 01:54:18;;;;;;;8.52;6.45;;;;;;;;;;4916090;29;20052;-65
2021/07/30 01:56:45;;;;;;;7.95;5.53;;;;;;;;;;4916022;29;20103;-65
2021/07/30 01:59:11;;;;;;;6.10;5.30;;;;;;;;;;4916152;29;20095;-64
2021/07/30 02:01:38;;;;;;;7.32;5.30;;;;;;;;;;4916269;29;20090;-65
2021/07/30 02:04:05;;;;;;;7.10;5.70;;;;;;;;;;4916118;29;20490;-65
2021/07/30 02:06:31;;;;;;;11.27;5.05;;;;;;;;;;4916203;29;20087;-64
2021/07/30 02:08:59;;;;;;;8.98;5.13;;;;;;;;;;4915933;29;20094;-65
2021/07/30 02:11:26;;;;;;;6.15;4.97;;;;;;;;;;4916206;29;20083;-65
2021/07/30 02:16:56;;;;;;;7.18;5.60;;;;;;;;;;4894635;29;20053;-65
2021/07/30 02:19:23;;;;;;;7.63;4.72;;;;;;;;;;4911783;29;20134;-65
2021/07/30 02:21:51;;;;;;;8.05;5.45;;;;;;;;;;4915849;29;20048;-65
2021/07/30 02:24:17;;;;;;;6.45;4.95;;;;;;;;;;4914836;29;20281;-64
2021/07/30 02:26:44;;;;;;;7.13;5.55;;;;;;;;;;4915865;29;20052;-65
2021/07/30 02:29:10;;;;;;;8.55;5.63;;;;;;;;;;4915637;29;20467;-64
2021/07/30 02:31:37;;;;;;;7.47;5.43;;;;;;;;;;4915856;29;20463;-64
2021/07/30 02:34:04;;;;;;;9.38;6.00;;;;;;;;;;4915406;29;20515;-64
2021/07/30 02:36:30;;;;;;;6.47;5.20;;;;;;;;;;4915578;29;20091;-65
2021/07/30 02:38:58;;;;;;;8.00;5.22;;;;;;;;;;4915303;29;20091;-65
2021/07/30 02:41:24;;;;;;;9.10;5.80;;;;;;;;;;4915749;29;20087;-64
2021/07/30 02:43:51;;;;;;;7.28;5.47;;;;;;;;;;4915471;29;20079;-64
2021/07/30 02:46:17;;;;;;;10.63;6.03;;;;;;;;;;4915753;29;20075;-64
2021/07/30 02:48:44;;;;;;;6.65;5.28;;;;;;;;;;4915474;29;20099;-64
2021/07/30 02:51:15;;;;;;;7.60;5.30;;;;;;;;;;4915506;29;20491;-65
2021/07/30 02:53:41;;;;;;;9.80;6.07;;;;;;;;;;4915382;29;20076;-65
2021/07/30 02:56:08;;;;;;;8.65;5.63;;;;;;;;;;4918436;29;20087;-64
2021/07/30 02:58:36;;;;;;;6.70;5.80;;;;;;;;;;4919693;29;20082;-64
2021/07/30 03:01:03;;;;;;;7.75;6.05;;;;;;;;;;4919119;29;20504;-64
2021/07/30 03:03:31;;;;;;;10.35;6.50;;;;;;;;;;4919200;29;20436;-64
2021/07/30 03:05:58;;;;;;;7.82;6.18;;;;;;;;;;4919081;29;20087;-65
2021/07/30 03:08:28;;;;;;;6.82;6.13;;;;;;;;;;4919386;29;20400;-65
2021/07/30 03:10:55;;;;;;;7.88;6.38;;;;;;;;;;4919231;29;20083;-65
2021/07/30 03:13:21;;;;;;;7.90;6.57;;;;;;;;;;4919212;29;20095;-65
2021/07/30 03:15:54;;;;;;;9.85;6.18;;;;;;;;;;4919405;29;20075;-65
2021/07/30 03:18:21;;;;;;;8.18;6.00;;;;;;;;;;4919180;29;20056;-65
2021/07/30 03:20:47;;;;;;;6.43;5.43;;;;;;;;;;4918861;29;20532;-65
2021/07/30 03:23:14;;;;;;;7.60;5.47;;;;;;;;;;4918709;29;20056;-64
2021/07/30 03:25:41;;;;;;;8.25;6.38;;;;;;;;;;4919221;29;20088;-65
2021/07/30 03:28:07;;;;;;;6.93;5.65;;;;;;;;;;4918967;29;20091;-65
2021/07/30 03:30:34;;;;;;;8.45;6.63;;;;;;;;;;4918819;29;20086;-65
2021/07/30 03:33:00;;;;;;;7.47;6.13;;;;;;;;;;4918412;29;20146;-65
2021/07/30 03:35:29;;;;;;;8.98;5.97;;;;;;;;;;4919053;29;20404;-65
2021/07/30 03:37:55;;;;;;;8.40;5.80;;;;;;;;;;4918584;29;20107;-65
2021/07/30 03:40:22;;;;;;;8.38;6.72;;;;;;;;;;4918467;29;20079;-65
2021/07/30 03:42:49;;;;;;;8.75;6.70;;;;;;;;;;4918358;29;20098;-65
2021/07/30 03:45:15;;;;;;;9.27;6.93;;;;;;;;;;4918809;29;20094;-64
2021/07/30 03:47:42;;;;;;;8.52;6.93;;;;;;;;;;4918380;29;20084;-65
2021/07/30 03:50:09;;;;;;;7.53;5.93;;;;;;;;;;4918463;29;20499;-65
2021/07/30 03:52:35;;;;;;;7.15;5.88;;;;;;;;;;4918399;29;20082;-64
2021/07/30 03:55:02;;;;;;;7.65;6.10;;;;;;;;;;4918420;29;20052;-65
2021/07/30 03:57:28;;;;;;;6.95;6.13;;;;;;;;;;4918644;29;20098;-65
2021/07/30 03:59:55;;;;;;;8.65;5.95;;;;;;;;;;4918267;29;20084;-65
2021/07/30 04:02:26;;;;;;;7.43;6.30;;;;;;;;;;4918244;29;20475;-65
2021/07/30 04:04:53;;;;;;;8.57;6.82;;;;;;;;;;4918043;29;20052;-64
2021/07/30 04:07:20;;;;;;;8.38;7.22;;;;;;;;;;4917808;29;20127;-64
2021/07/30 04:09:46;;;;;;;9.13;6.78;;;;;;;;;;4917887;29;20048;-65
2021/07/30 04:12:13;;;;;;;12.57;7.45;;;;;;;;;;4918306;29;20079;-64
2021/07/30 04:14:39;;;;;;;8.38;6.88;;;;;;;;;;4918205;29;20095;-64
2021/07/30 04:17:07;;;;;;;8.15;6.70;;;;;;;;;;4918040;29;20508;-64
2021/07/30 04:19:34;;;;;;;11.88;6.72;;;;;;;;;;4917670;29;20088;-64
2021/07/30 04:22:00;;;;;;;7.35;6.13;;;;;;;;;;4917858;29;20102;-65
2021/07/30 04:24:27;;;;;;;8.43;6.03;;;;;;;;;;4917705;29;20472;-65
2021/07/30 04:26:53;;;;;;;8.60;6.25;;;;;;;;;;4916281;29;20098;-64
2021/07/30 04:29:20;;;;;;;10.30;6.40;;;;;;;;;;4917713;29;20111;-64
2021/07/30 04:31:46;;;;;;;7.35;5.80;;;;;;;;;;4917602;29;20091;-65
2021/07/30 04:34:13;;;;;;;8.15;6.22;;;;;;;;;;4917740;29;20048;-64
2021/07/30 04:36:40;;;;;;;11.88;6.78;;;;;;;;;;4916547;29;20056;-65
2021/07/30 04:39:06;;;;;;;9.70;6.65;;;;;;;;;;4917382;29;20424;-64
2021/07/30 04:41:33;;;;;;;7.93;6.78;;;;;;;;;;4917730;29;20087;-65
2021/07/30 04:43:59;;;;;;;9.15;6.43;;;;;;;;;;4916446;29;20091;-64
2021/07/30 04:46:26;;;;;;;8.95;6.70;;;;;;;;;;4917427;29;20052;-65
2021/07/30 04:48:53;;;;;;;8.55;6.32;;;;;;;;;;4917684;29;20631;-64
2021/07/30 04:51:19;;;;;;;10.65;6.45;;;;;;;;;;4917470;29;20051;-65
2021/07/30 04:53:49;;;;;;;10.48;6.05;;;;;;;;;;4917255;29;20127;-64
2021/07/30 04:56:17;;;;;;;6.97;5.97;;;;;;;;;;4917463;29;20123;-64
2021/07/30 04:58:48;;;;;;;7.40;6.28;;;;;;;;;;4917375;29;20048;-65
2021/07/30 05:01:15;;;;;;;8.02;6.65;;;;;;;;;;4916919;29;20083;-65
2021/07/30 05:03:41;;;;;;;10.15;6.38;;;;;;;;;;4917210;29;20052;-65
2021/07/30 05:06:15;;;;;;;7.85;6.20;;;;;;;;;;4917565;29;20091;-65
2021/07/30 05:08:42;;;;;;;9.98;6.88;;;;;;;;;;4909497;29;20083;-65
2021/07/30 05:11:11;;;;;;;9.90;7.20;;;;;;;;;;4908363;29;20048;-65
2021/07/30 05:13:39;;;;;;;10.00;6.70;;;;;;;;;;4907100;29;20138;-64
2021/07/30 05:16:10;;;;;;;9.75;6.57;;;;;;;;;;4906300;29;20091;-64
2021/07/30 05:18:37;;;;;;;7.35;6.50;;;;;;;;;;4904906;29;20139;-65
2021/07/30 05:21:05;;;;;;;8.63;6.70;;;;;;;;;;4907817;29;20080;-65
2021/07/30 05:23:32;;;;;;;8.15;6.68;;;;;;;;;;4913114;29;20103;-64
2021/07/30 05:25:58;;;;;;;8.95;6.90;;;;;;;;;;4897950;29;20079;-65
2021/07/30 05:28:25;;;;;;;9.35;7.30;;;;;;;;;;4900676;29;20091;-64
2021/07/30 05:30:54;;;;;;;8.40;6.38;;;;;;;;;;4916694;29;20482;-64
2021/07/30 05:33:21;;;;;;;10.13;7.28;;;;;;;;;;4916556;29;20103;-64
2021/07/30 05:35:47;;;;;;;8.18;6.45;;;;;;;;;;4916778;29;20083;-65
2021/07/30 05:38:14;;;;;;;8.50;6.68;;;;;;;;;;4916606;29;20092;-65
2021/07/30 05:40:44;;;;;;;16.40;7.97;;;;;;;;;;4916194;29;20059;-64
2021/07/30 05:43:11;;;;;;;11.38;7.40;;;;;;;;;;4917181;29;20083;-65
2021/07/30 05:45:37;;;;;;;10.48;7.82;;;;;;;;;;4916638;29;20491;-65
2021/07/30 05:48:04;;;;;;;9.38;6.38;;;;;;;;;;4916798;29;20091;-65
2021/07/30 05:50:31;;;;;;;10.60;6.70;;;;;;;;;;4916439;29;20094;-64
2021/07/30 05:52:57;;;;;;;8.95;7.05;;;;;;;;;;4916373;29;20108;-65
2021/07/30 05:55:24;;;;;;;14.32;6.90;;;;;;;;;;4916316;29;20052;-66
2021/07/30 05:57:50;;;;;;;8.57;7.20;;;;;;;;;;4916330;29;20088;-66
2021/07/30 06:00:17;;;;;;;8.57;6.72;;;;;;;;;;4916161;29;20102;-65
2021/07/30 06:02:44;;;;;;;9.77;6.68;;;;;;;;;;4914669;29;20084;-67
2021/07/30 06:05:11;;;;;;;9.20;6.72;;;;;;;;;;4914385;29;20068;-66
2021/07/30 06:07:37;;;;;;;10.73;7.22;;;;;;;;;;4914521;29;20079;-64
2021/07/30 06:10:04;;;;;;;9.70;6.88;;;;;;;;;;4914276;29;20566;-66
2021/07/30 06:12:31;;;;;;;10.10;6.53;;;;;;;;;;4914176;29;20084;-66
2021/07/30 06:14:58;;;;;;;15.13;7.25;;;;;;;;;;4914253;29;20083;-65
2021/07/30 06:17:24;;;;;;;7.60;6.32;;;;;;;;;;4914140;29;20080;-66
2021/07/30 06:19:53;;;;;;;12.25;6.60;;;;;;;;;;4914259;29;20114;-66
2021/07/30 06:22:24;;;;;;;8.38;6.30;;;;;;;;;;4914178;29;20071;-65
2021/07/30 06:24:51;;;;;;;8.82;6.03;;;;;;;;;;4914281;29;20099;-66
2021/07/30 06:27:17;;;;;;;7.00;6.20;;;;;;;;;;4914145;29;20088;-65
2021/07/30 06:29:44;;;;;;;8.68;5.22;;;;;;;;;;4913783;29;20135;-65
2021/07/30 06:32:10;;;;;;;7.50;6.28;;;;;;;;;;4914179;29;20542;-66
2021/07/30 06:34:37;;;;;;;8.15;6.10;;;;;;;;;;4913938;29;20092;-66
2021/07/30 06:37:04;;;;;;;6.60;5.63;;;;;;;;;;4914100;29;20087;-65
2021/07/30 06:39:30;;;;;;;7.85;6.00;;;;;;;;;;4913739;29;20491;-65
2021/07/30 06:41:57;;;;;;;8.38;5.90;;;;;;;;;;4913725;29;20135;-66
2021/07/30 06:44:23;;;;;;;8.57;6.00;;;;;;;;;;4914077;29;20087;-66
2021/07/30 06:46:50;;;;;;;9.18;5.38;;;;;;;;;;4914184;29;20056;-65
2021/07/30 06:49:17;;;;;;;7.40;6.00;;;;;;;;;;4914131;29;20131;-66
2021/07/30 06:51:43;;;;;;;6.32;5.07;;;;;;;;;;4913923;29;20087;-66
2021/07/30 06:54:10;;;;;;;6.03;5.43;;;;;;;;;;4913639;29;20095;-65
2021/07/30 06:56:37;;;;;;;6.47;5.38;;;;;;;;;;4903491;29;20087;-67
2021/07/30 06:59:03;;;;;;;6.47;5.53;;;;;;;;;;4908475;29;20508;-69
2021/07/30 07:01:30;;;;;;;6.93;5.05;;;;;;;;;;4908239;29;20080;-66
2021/07/30 07:03:58;;;;;;;5.43;4.93;;;;;;;;;;4900181;29;20053;-67
2021/07/30 07:06:24;;;;;;;6.70;4.60;;;;;;;;;;4901249;29;20086;-67
2021/07/30 07:08:51;;;;;;;5.15;4.50;;;;;;;;;;4909876;29;20156;-67
2021/07/30 07:11:17;;;;;;;7.07;5.45;;;;;;;;;;4900995;29;20582;-67
2021/07/30 07:13:44;;;;;;;7.88;5.00;;;;;;;;;;4907283;29;20467;-68
2021/07/30 07:16:10;;;;;;;6.25;5.28;;;;;;;;;;4898923;29;20052;-68
2021/07/30 07:18:37;;;;;;;7.18;4.60;;;;;;;;;;4899563;29;20095;-68
2021/07/30 07:21:04;;;;;;;5.30;4.80;;;;;;;;;;4902938;29;20079;-68
2021/07/30 07:23:30;;;;;;;6.82;4.72;;;;;;;;;;4901869;29;20075;-70
2021/07/30 07:25:59;;;;;;;8.23;5.47;;;;;;;;;;4902989;29;20089;-70
2021/07/30 07:28:26;;;;;;;5.63;5.03;;;;;;;;;;4905145;29;20087;-70
2021/07/30 07:30:54;;;;;;;5.80;4.10;;;;;;;;;;4900381;29;20052;-74
2021/07/30 07:33:20;;;;;;;6.30;4.25;;;;;;;;;;4904328;29;20052;-75
2021/07/30 07:35:53;;;;;;;7.40;4.82;;;;;;;;;;4899275;29;20512;-77
2021/07/30 07:38:20;;;;;;;6.35;3.92;;;;;;;;;;4903876;29;20071;-71
2021/07/30 07:40:47;;;;;;;6.65;4.78;;;;;;;;;;4901094;29;20131;-73
2021/07/30 07:43:13;;;;;;;5.60;4.10;;;;;;;;;;4905531;29;20052;-66
2021/07/30 07:45:41;;;;;;;6.93;4.20;;;;;;;;;;4904899;29;20091;-65
2021/07/30 07:48:08;;;;;;;8.00;4.20;;;;;;;;;;4905052;29;20535;-66
2021/07/30 07:50:34;;;;;;;4.60;3.80;;;;;;;;;;4905303;29;20091;-65
2021/07/30 07:53:01;;;;;;;5.07;4.18;;;;;;;;;;4905072;29;20057;-65
2021/07/30 07:55:27;;;;;;;5.80;4.07;;;;;;;;;;4905678;29;20153;-67
2021/07/30 07:57:55;;;;;;;5.28;3.83;;;;;;;;;;4904191;29;20052;-66
2021/07/30 08:00:21;;;;;;;5.95;3.85;;;;;;;;;;4903376;29;20124;-66
2021/07/30 08:02:48;;;;;;;7.15;4.10;;;;;;;;;;4903180;29;20135;-67
2021/07/30 08:05:15;;;;;;;5.18;4.05;;;;;;;;;;4903795;29;20057;-65
2021/07/30 08:07:41;;;;;;;6.68;3.83;;;;;;;;;;4918115;29;20535;-66
2021/07/30 08:10:08;;;;;;;6.80;4.40;;;;;;;;;;4903450;29;20094;-67
2021/07/30 08:12:35;;;;;;;6.00;4.13;;;;;;;;;;4903673;29;20049;-66
2021/07/30 08:15:03;;;;;;;6.15;4.00;;;;;;;;;;4905593;29;20074;-66
2021/07/30 08:17:30;;;;;;;8.15;4.30;;;;;;;;;;4904493;29;20092;-67
2021/07/30 08:19:57;;;;;;;7.50;4.20;;;;;;;;;;4904908;29;20194;-72
2021/07/30 08:22:24;;;;;;;4.78;3.85;;;;;;;;;;4905063;29;20135;-72
2021/07/30 08:24:50;;;;;;;6.75;4.20;;;;;;;;;;4904683;29;20084;-71
2021/07/30 08:27:17;;;;;;;5.80;4.38;;;;;;;;;;4904742;29;20102;-71
2021/07/30 08:29:44;;;;;;;4.65;3.67;;;;;;;;;;4906163;29;20079;-73
2021/07/30 08:32:11;;;;;;;7.93;4.13;;;;;;;;;;4905724;29;20044;-73
2021/07/30 08:34:40;;;;;;;4.47;4.00;;;;;;;;;;4907615;29;20460;-72
2021/07/30 08:37:16;;;;;;;5.28;3.58;;;;;;;;;;4903482;29;20492;-77
2021/07/30 08:39:43;;;;;;;7.28;4.50;;;;;;;;;;4887051;29;20057;-73
2021/07/30 08:42:10;;;;;;;5.03;4.00;;;;;;;;;;4905367;29;20080;-72
2021/07/30 08:44:38;;;;;;;6.82;4.10;;;;;;;;;;4902656;29;20519;-72
2021/07/30 08:47:33;;;;;;;7.20;3.90;;;;;;;;;;4904682;29;20064;-71
2021/07/30 08:50:04;;;;;;;6.07;3.47;;;;;;;;;;4919967;23;20456;-73
2021/07/30 08:52:36;;;;;;;5.13;4.13;;;;;;;;;;4916789;29;20055;-74
2021/07/30 08:55:04;;;;;;;;;;;;;;;;;;4903916;29;20427;-73
2021/07/30 08:57:30;;;;;;;4.80;4.05;;;;;;;;;;4923676;29;20387;-74
2021/07/30 09:00:10;;;;;;;4.82;3.97;;;;;;;;;;4923373;29;20059;-74
2021/07/30 09:02:46;;;;;;;5.38;3.92;;;;;;;;;;4911265;29;20055;-74
2021/07/30 09:05:27;;;;;;;5.72;3.95;;;;;;;;;;4928461;29;20419;-74
2021/07/30 09:07:54;;;;;;;5.05;3.83;;;;;;;;;;4917347;29;20095;-74
2021/07/30 09:10:32;;;;;;;5.43;4.53;;;;;;;;;;4917440;29;20066;-74
2021/07/30 09:13:18;;;;;;;4.90;3.90;;;;;;;;;;4916583;29;20062;-73
2021/07/30 09:15:48;;;;;;;6.10;4.30;;;;;;;;;;4917368;29;20047;-74
2021/07/30 09:18:36;;;;;;;5.68;3.95;;;;;;;;;;4896092;29;20495;-73
2021/07/30 09:21:18;;;;;;;7.18;4.43;;;;;;;;;;4901576;29;20052;-74
2021/07/30 09:23:58;;;;;;;7.27;4.07;;;;;;;;;;4922906;29;20107;-74
2021/07/30 09:26:29;;;;;;;5.70;4.53;;;;;;;;;;4933234;29;20063;-74
2021/07/30 09:28:57;;;;;;;6.95;4.15;;;;;;;;;;4929332;29;20059;-73
2021/07/30 09:31:38;;;;;;;;;;;;;;;;;;4934402;29;20130;-74
2021/07/30 09:34:22;;;;;;;5.35;3.83;;;;;;;;;;4932506;29;20374;-74
2021/07/30 09:37:05;;;;;;;4.90;3.72;;;;;;;;;;4898353;29;20056;-74
2021/07/30 09:39:32;;;;;;;3.90;3.50;;;;;;;;;;4929430;29;20055;-74
2021/07/30 09:42:10;;;;;;;5.22;3.65;;;;;;;;;;4931442;29;20055;-74
2021/07/30 09:44:59;;;;;;;4.30;3.67;;;;;;;;;;4903638;29;20059;-74
2021/07/30 09:47:34;;;;;;;5.28;3.88;;;;;;;;;;4931182;29;20051;-75
2021/07/30 09:50:07;;;;;;;4.43;3.65;;;;;;;;;;4927792;29;20118;-75
2021/07/30 09:52:39;;;;;;;4.13;3.60;;;;;;;;;;4916972;29;20493;-75
2021/07/30 09:55:11;;;;;;;4.30;3.45;;;;;;;;;;4930241;29;20071;-75
2021/07/30 09:57:40;;;;;;;4.63;3.90;;;;;;;;;;4900188;29;20055;-75
2021/07/30 10:00:16;;;;;;;4.10;3.70;;;;;;;;;;4932720;29;20099;-76
2021/07/30 10:02:44;;;;;;;4.32;3.92;;;;;;;;;;4913283;29;20407;-75
2021/07/30 10:05:14;;;;;;;5.53;3.78;;;;;;;;;;4910837;29;20535;-76
2021/07/30 10:07:41;;;;;;;5.35;4.05;;;;;;;;;;4907103;29;20048;-76
2021/07/30 10:12:45;;;;;;;4.60;3.80;;;;;;;;;;4933502;29;20051;-75
2021/07/30 10:15:12;;;;;;;4.20;3.67;;;;;;;;;;4932735;29;20570;-75
2021/07/30 10:17:44;;;;;;;5.93;3.85;;;;;;;;;;4922438;29;20055;-75
2021/07/30 10:20:12;;;;;;;7.60;4.03;;;;;;;;;;4930843;29;20055;-75
2021/07/30 10:22:48;;;;;;;7.63;4.20;;;;;;;;;;4932795;29;20043;-75
2021/07/30 10:25:22;;;;;;;4.95;3.88;;;;;;;;;;4933109;29;20138;-75
2021/07/30 10:27:54;;;;;;;5.00;3.83;;;;;;;;;;4917581;29;20054;-75
2021/07/30 10:30:21;;;;;;;4.43;4.03;;;;;;;;;;4917555;29;20052;-75
2021/07/30 10:32:56;;;;;;;4.93;4.05;;;;;;;;;;4909704;29;20043;-75
2021/07/30 10:35:25;;;;;;;4.38;3.78;;;;;;;;;;4915870;29;20518;-75
2021/07/30 10:38:15;;;;;;;5.15;3.97;;;;;;;;;;4929765;29;20058;-75
2021/07/30 10:40:57;;;;;;;5.55;4.10;;;;;;;;;;4903822;29;20051;-74
2021/07/30 10:43:27;;;;;;;6.15;4.38;;;;;;;;;;4929033;29;20118;-74
2021/07/30 10:46:10;;;;;;;4.75;4.20;;;;;;;;;;4929963;29;20111;-75
2021/07/30 10:48:38;;;;;;;4.95;3.75;;;;;;;;;;4932295;29;20407;-74
2021/07/30 10:51:27;;;;;;;4.47;4.07;;;;;;;;;;4912926;29;20499;-75
2021/07/30 10:54:04;;;;;;;3.95;3.40;;;;;;;;;;4929007;29;20055;-74
2021/07/30 10:56:30;;;;;;;6.68;3.97;;;;;;;;;;4914747;29;20467;-74
2021/07/30 10:59:01;;;;;;;4.97;3.83;;;;;;;;;;4930864;29;20119;-74
2021/07/30 11:01:27;;;;;;;6.35;3.92;;;;;;;;;;4929579;29;20047;-75
2021/07/30 11:04:04;;;;;;;5.55;4.10;;;;;;;;;;4929925;29;20064;-75
2021/07/30 11:06:36;;;;;;;5.35;3.50;;;;;;;;;;4911713;29;20064;-75
2021/07/30 11:09:06;;;;;;;6.18;4.53;;;;;;;;;;4930972;29;20063;-75
2021/07/30 11:11:36;;;;;;;5.88;3.97;;;;;;;;;;4931983;29;20075;-75
2021/07/30 11:14:07;;;;;;;3.60;3.30;;;;;;;;;;4924844;29;20056;-76
2021/07/30 11:16:34;;;;;;;5.90;3.60;;;;;;;;;;4916715;29;20146;-75
2021/07/30 11:19:02;;;;;;;6.82;3.88;;;;;;;;;;4934139;29;20060;-75
2021/07/30 11:21:29;;;;;;;7.70;3.85;;;;;;;;;;4920024;29;20102;-75
2021/07/30 11:23:57;;;;;;;5.20;3.53;;;;;;;;;;4929144;29;20103;-75
2021/07/30 11:26:24;;;;;;;4.50;3.20;;;;;;;;;;4952702;29;20063;-83
2021/07/30 11:28:51;;;;;;;4.10;3.70;;;;;;;;;;4939123;29;20051;-79
2021/07/30 11:31:18;;;;;;;3.90;3.50;;;;;;;;;;4942201;29;20040;-81
2021/07/30 11:33:45;;;;;;;7.65;3.63;;;;;;;;;;4923614;29;20077;-79
2021/07/30 11:36:12;;;;;;;4.13;3.72;;;;;;;;;;4911241;29;20052;-79
2021/07/30 11:38:53;;;;;;;4.82;3.67;;;;;;;;;;4941195;29;20056;-79
2021/07/30 11:41:20;;;;;;;6.38;3.97;;;;;;;;;;4915087;29;20079;-80
2021/07/30 11:44:03;;;;;;;6.70;4.82;;;;;;;;;;4940772;23;20048;-70
2021/07/30 11:46:31;;;;;;;3.92;3.53;;;;;;;;;;4936575;29;20522;-69
2021/07/30 11:48:59;;;;;;;5.28;3.83;;;;;;;;;;4940850;29;20051;-69
2021/07/30 11:51:25;;;;;;;7.70;4.10;;;;;;;;;;4959464;29;20051;-69
2021/07/30 11:53:53;;;;;;;6.53;3.47;;;;;;;;;;4958871;29;20047;-69
2021/07/30 11:56:20;;;;;;;4.25;3.85;;;;;;;;;;4959079;29;20107;-68
2021/07/30 11:59:03;;;;;;;4.88;4.30;;;;;;;;;;4956122;29;20048;-68
2021/07/30 12:01:30;;;;;;;5.28;4.00;;;;;;;;;;4958762;29;20128;-68
2021/07/30 12:04:11;;;;;;;4.13;3.67;;;;;;;;;;4960078;29;20075;-68
2021/07/30 12:06:41;;;;;;;4.95;3.90;;;;;;;;;;4957557;29;20055;-69
2021/07/30 12:09:09;;;;;;;5.32;3.90;;;;;;;;;;4958041;29;20048;-69
2021/07/30 12:11:36;;;;;;;4.45;3.42;;;;;;;;;;4958212;29;20047;-69
2021/07/30 12:14:02;;;;;;;4.50;4.10;;;;;;;;;;4940362;29;20039;-69
2021/07/30 12:16:29;;;;;;;7.93;4.10;;;;;;;;;;4955903;29;20064;-69
2021/07/30 12:18:55;;;;;;;5.97;3.95;;;;;;;;;;4950924;29;20059;-69
2021/07/30 12:21:22;;;;;;;5.00;4.13;;;;;;;;;;4954168;29;20043;-69
2021/07/30 12:23:48;;;;;;;6.13;4.25;;;;;;;;;;4956612;29;20047;-69
2021/07/30 12:26:30;;;;;;;4.35;3.95;;;;;;;;;;4956571;29;20040;-69
2021/07/30 12:28:56;;;;;;;5.78;4.30;;;;;;;;;;4945041;29;20063;-69
2021/07/30 12:31:23;;;;;;;4.53;4.13;;;;;;;;;;4941050;29;20075;-68
2021/07/30 12:33:50;;;;;;;6.43;4.47;;;;;;;;;;4952039;29;20127;-69
2021/07/30 12:36:16;;;;;;;4.47;3.63;;;;;;;;;;4936758;29;20063;-68
2021/07/30 12:39:02;;;;;;;5.75;4.43;;;;;;;;;;4949550;29;20059;-69
2021/07/30 12:41:33;;;;;;;5.88;4.82;;;;;;;;;;4950250;29;20051;-69
2021/07/30 12:44:11;;;;;;;4.03;3.60;;;;;;;;;;4948756;29;20067;-68
2021/07/30 12:46:46;;;;;;;4.75;3.88;;;;;;;;;;4943478;29;20517;-68
2021/07/30 12:49:14;;;;;;;5.30;4.32;;;;;;;;;;4943188;29;20052;-70
2021/07/30 12:51:43;;;;;;;4.10;3.70;;;;;;;;;;4953448;29;20048;-67
2021/07/30 12:54:13;;;;;;;4.97;3.92;;;;;;;;;;4943415;29;20067;-67
2021/07/30 12:56:56;;;;;;;6.05;4.18;;;;;;;;;;4937854;29;20051;-67
2021/07/30 13:00:06;;;;;;;3.88;3.40;;;;;;;;;;4938438;29;20055;-66
2021/07/30 13:02:37;;;;;;;4.82;3.40;;;;;;;;;;4936879;29;20079;-66
2021/07/30 13:05:07;;;;;;;4.20;3.40;;;;;;;;;;4938636;29;20051;-65
2021/07/30 13:07:34;;;;;;;4.40;3.85;;;;;;;;;;4938447;29;20091;-66
2021/07/30 13:10:03;;;;;;;3.75;3.30;;;;;;;;;;4937009;29;20107;-67
2021/07/30 13:12:29;;;;;;;4.30;3.40;;;;;;;;;;4932231;29;20090;-67
2021/07/30 13:14:56;;;;;;;3.53;3.22;;;;;;;;;;4942993;29;20079;-69
2021/07/30 13:17:27;;;;;;;3.80;3.50;;;;;;;;;;4946658;29;20040;-69
2021/07/30 13:19:53;;;;;;;4.28;3.42;;;;;;;;;;4934715;29;20568;-67
2021/07/30 13:22:20;;;;;;;3.72;3.42;;;;;;;;;;4948627;29;20068;-71
2021/07/30 13:24:46;;;;;;;3.58;3.28;;;;;;;;;;4956993;29;20043;-69
2021/07/30 13:27:13;;;;;;;5.35;3.67;;;;;;;;;;4955126;29;20044;-69
2021/07/30 13:29:39;;;;;;;4.70;4.25;;;;;;;;;;4956855;29;20052;-69
2021/07/30 13:32:06;;;;;;;4.57;3.67;;;;;;;;;;4955818;29;20047;-70
2021/07/30 13:34:33;;;;;;;3.90;3.60;;;;;;;;;;4955795;29;20043;-69
2021/07/30 13:37:00;;;;;;;3.85;3.33;;;;;;;;;;4956230;29;20048;-69
2021/07/30 13:39:27;;;;;;;6.25;3.83;;;;;;;;;;4956261;29;20038;-69
2021/07/30 13:41:53;;;;;;;4.05;3.30;;;;;;;;;;4957762;29;20051;-69
2021/07/30 13:44:20;;;;;;;3.97;3.67;;;;;;;;;;4958069;29;20103;-69
2021/07/30 13:46:47;;;;;;;4.35;3.80;;;;;;;;;;4958877;29;20043;-69
2021/07/30 13:49:13;;;;;;;3.38;3.08;;;;;;;;;;4955707;29;20047;-71
2021/07/30 13:51:40;;;;;;;5.35;3.80;;;;;;;;;;4934146;29;20079;-71
2021/07/30 13:54:06;;;;;;;4.00;3.33;;;;;;;;;;4934361;29;20183;-70
2021/07/30 13:56:33;;;;;;;3.78;3.38;;;;;;;;;;4935050;29;20106;-70
2021/07/30 13:58:59;;;;;;;4.20;3.80;;;;;;;;;;4934251;29;20097;-70
2021/07/30 14:01:26;;;;;;;4.50;3.38;;;;;;;;;;4934795;29;20078;-71
2021/07/30 14:03:53;;;;;;;4.93;3.65;;;;;;;;;;4933330;29;20078;-71
2021/07/30 14:06:19;;;;;;;2.85;2.65;;;;;;;;;;4933713;29;20056;-71
2021/07/30 14:08:46;;;;;;;3.45;3.15;;;;;;;;;;4933848;29;20150;-69
2021/07/30 14:11:14;;;;;;;6.30;3.85;;;;;;;;;;4932956;29;20059;-70
2021/07/30 14:13:43;;;;;;;5.55;3.67;;;;;;;;;;4933089;29;20048;-70
2021/07/30 14:16:17;;;;;;;4.05;3.70;;;;;;;;;;4932341;29;20052;-70
2021/07/30 14:18:44;;;;;;;4.93;4.00;;;;;;;;;;4932046;29;20051;-69
2021/07/30 14:21:11;;;;;;;4.05;3.75;;;;;;;;;;4933866;29;20083;-69
2021/07/30 14:23:37;;;;;;;6.88;4.10;;;;;;;;;;4933299;29;20083;-71
2021/07/30 14:26:04;;;;;;;5.05;3.95;;;;;;;;;;4933752;29;20138;-70
2021/07/30 14:28:30;;;;;;;4.25;3.85;;;;;;;;;;4933294;29;20534;-70
2021/07/30 14:30:57;;;;;;;6.40;4.22;;;;;;;;;;4932348;29;20142;-70
2021/07/30 14:33:23;;;;;;;5.18;4.28;;;;;;;;;;4933419;29;20090;-69
2021/07/30 14:35:50;;;;;;;4.38;3.97;;;;;;;;;;4932640;29;20079;-69
2021/07/30 14:38:16;;;;;;;5.30;3.67;;;;;;;;;;4933772;29;20055;-70
2021/07/30 14:40:43;;;;;;;4.45;4.05;;;;;;;;;;4933642;29;20122;-69
2021/07/30 14:43:09;;;;;;;4.50;4.00;;;;;;;;;;4932946;29;20122;-70
2021/07/30 14:45:43;;;;;;;4.43;4.03;;;;;;;;;;4930736;29;20143;-70
2021/07/30 14:48:09;;;;;;;6.85;4.18;;;;;;;;;;4932873;29;20474;-70
2021/07/30 14:50:36;;;;;;;5.03;4.45;;;;;;;;;;4933997;29;20482;-70
2021/07/30 14:53:02;;;;;;;6.18;4.53;;;;;;;;;;4933824;29;20118;-70
2021/07/30 14:55:29;;;;;;;5.25;3.95;;;;;;;;;;4933597;29;20083;-70
2021/07/30 14:57:55;;;;;;;8.98;4.15;;;;;;;;;;4933133;29;20052;-70